Time;durP1;ratioP1;P1;durP2;ratioP2;P2;SDS_P1;SDS_P2;PMS_P1;PMS_P2;Temp;Humidity;BMP_temperature;BMP_pressure;BME280_temperature;BME280_humidity;BME280_pressure;Samples;Min_cycle;Max_cycle;Signal;HPM_P1;HPM_P2
2022/03/23 00:01:21;;;;;;;62.23;55.43;;;;;;;4.22;89.73;103318.50;5091435;28;20903;-45
2022/03/23 00:03:49;;;;;;;64.80;55.43;;;;;;;4.20;89.75;103319.53;5080145;28;20447;-47
2022/03/23 00:06:17;;;;;;;65.37;57.00;;;;;;;4.16;90.14;103313.59;5071268;28;20458;-48
2022/03/23 00:08:47;;;;;;;68.00;56.13;;;;;;;4.14;90.25;103327.84;5071629;28;20771;-43
2022/03/23 00:11:15;;;;;;;66.87;57.67;;;;;;;4.11;90.55;103315.66;5071286;28;20454;-48
2022/03/23 00:13:42;;;;;;;79.30;57.07;;;;;;;4.11;90.78;103312.19;5071485;28;20484;-43
2022/03/23 00:16:10;;;;;;;77.20;60.77;;;;;;;4.11;91.20;103323.59;5070973;28;20537;-45
2022/03/23 00:18:38;;;;;;;74.67;59.60;;;;;;;4.13;91.28;103316.41;5071488;28;20949;-46
2022/03/23 00:21:06;;;;;;;69.47;58.37;;;;;;;4.13;91.98;103312.91;5071295;28;20537;-43
2022/03/23 00:23:34;;;;;;;73.87;61.80;;;;;;;4.13;92.00;103316.41;5071390;28;20427;-46
2022/03/23 00:26:03;;;;;;;70.93;59.17;;;;;;;4.12;92.56;103317.34;5070999;28;20529;-49
2022/03/23 00:28:31;;;;;;;73.03;61.17;;;;;;;4.11;92.18;103315.66;5071281;28;20465;-44
2022/03/23 00:30:59;;;;;;;64.33;57.27;;;;;;;4.10;91.87;103315.75;5070964;28;20462;-45
2022/03/23 00:33:31;;;;;;;71.93;56.47;;;;;;;4.06;91.26;103314.25;5071469;28;20466;-46
2022/03/23 00:35:59;;;;;;;70.07;55.93;;;;;;;4.01;91.46;103308.38;5073614;28;20434;-44
2022/03/23 00:38:26;;;;;;;62.03;54.53;;;;;;;3.95;90.98;103300.81;5075069;28;20925;-47
2022/03/23 00:40:55;;;;;;;63.83;52.73;;;;;;;3.89;90.70;103308.16;5074749;28;20860;-45
2022/03/23 00:43:24;;;;;;;69.67;59.10;;;;;;;3.84;90.72;103312.88;5075324;28;20534;-48
2022/03/23 00:45:52;;;;;;;74.43;54.80;;;;;;;3.84;90.70;103309.38;5082815;28;20490;-45
2022/03/23 00:48:20;;;;;;;72.17;56.47;;;;;;;3.80;90.76;103307.84;5087554;28;20426;-44
2022/03/23 00:50:48;;;;;;;68.23;56.07;;;;;;;3.76;90.64;103304.53;5094950;28;20457;-46
2022/03/23 00:53:17;;;;;;;66.13;56.23;;;;;;;3.75;90.95;103312.56;5095135;28;20917;-44
2022/03/23 00:55:45;;;;;;;67.93;56.20;;;;;;;3.76;90.85;103303.72;5095235;28;20425;-45
2022/03/23 00:58:13;;;;;;;74.00;61.97;;;;;;;3.79;91.33;103308.81;5095147;28;20437;-48
2022/03/23 01:00:43;;;;;;;75.13;60.90;;;;;;;3.78;91.78;103302.69;5094984;28;20445;-44
2022/03/23 01:03:11;;;;;;;69.93;59.43;;;;;;;3.79;91.92;103299.09;5095273;28;20425;-46
2022/03/23 01:05:39;;;;;;;73.10;59.30;;;;;;;3.81;91.94;103301.66;5094928;28;20448;-44
2022/03/23 01:08:06;;;;;;;75.37;62.03;;;;;;;3.81;92.35;103299.00;5094224;28;20548;-48
2022/03/23 01:10:34;;;;;;;79.17;64.87;;;;;;;3.82;92.80;103301.53;5094692;28;20546;-44
2022/03/23 01:13:02;;;;;;;67.10;59.80;;;;;;;3.82;92.83;103300.72;5094903;28;20475;-46
2022/03/23 01:15:30;;;;;;;74.43;62.27;;;;;;;3.83;93.06;103297.13;5094914;28;20440;-49
2022/03/23 01:17:59;;;;;;;75.90;60.40;;;;;;;3.81;92.85;103293.72;5094190;28;20895;-46
2022/03/23 01:20:27;;;;;;;76.13;60.40;;;;;;;3.81;93.03;103299.00;5094265;28;20440;-47
2022/03/23 01:22:55;;;;;;;73.53;62.20;;;;;;;3.81;93.26;103299.00;5094561;28;20528;-46
2022/03/23 01:25:23;;;;;;;82.57;64.03;;;;;;;3.79;93.41;103301.72;5094746;28;20995;-43
2022/03/23 01:27:51;;;;;;;72.90;62.10;;;;;;;3.77;93.99;103300.13;5094041;28;20457;-45
2022/03/23 01:30:18;;;;;;;79.57;61.43;;;;;;;3.75;94.38;103308.16;5094156;28;20429;-43
2022/03/23 01:32:46;;;;;;;85.23;65.80;;;;;;;3.73;94.70;103296.81;5094354;28;20473;-43
2022/03/23 01:35:15;;;;;;;83.40;65.30;;;;;;;3.72;95.74;103296.91;5094180;28;20520;-44
2022/03/23 01:37:43;;;;;;;77.33;65.80;;;;;;;3.70;95.72;103291.72;5093789;28;20512;-47
2022/03/23 01:40:12;;;;;;;85.53;65.20;;;;;;;3.69;95.81;103297.94;5094051;28;20524;-47
2022/03/23 01:42:41;;;;;;;84.13;65.33;;;;;;;3.67;96.16;103297.19;5093883;28;20520;-43
2022/03/23 01:45:12;;;;;;;75.17;63.63;;;;;;;3.66;96.15;103294.63;5087803;28;21008;-43
2022/03/23 01:47:40;;;;;;;83.97;65.77;;;;;;;3.62;95.70;103288.69;5083531;28;20556;-47
2022/03/23 01:50:09;;;;;;;80.10;65.30;;;;;;;3.62;95.90;103293.09;5093985;28;20433;-48
2022/03/23 01:52:39;;;;;;;79.07;63.67;;;;;;;3.60;96.12;103282.66;5094040;28;21011;-51
2022/03/23 01:55:13;;;;;;;79.70;66.40;;;;;;;3.60;96.25;103295.84;5094096;28;20849;-50
2022/03/23 01:57:44;;;;;;;79.43;65.37;;;;;;;3.57;96.32;103293.38;5093381;28;21008;-51
2022/03/23 02:00:15;;;;;;;78.57;63.60;;;;;;;3.56;96.34;103293.47;5093502;28;20453;-43
2022/03/23 02:02:43;;;;;;;78.50;63.97;;;;;;;3.53;96.28;103285.72;5094046;28;20476;-50
2022/03/23 02:05:11;;;;;;;88.50;67.40;;;;;;;3.51;96.63;103288.47;5093714;28;20459;-52
2022/03/23 02:07:40;;;;;;;87.77;69.97;;;;;;;3.49;96.66;103287.72;5093201;28;20984;-51
2022/03/23 02:10:09;;;;;;;79.63;66.17;;;;;;;3.46;96.57;103287.03;5093730;28;20439;-47
2022/03/23 02:12:38;;;;;;;86.70;67.20;;;;;;;3.45;96.78;103283.53;5093314;28;20464;-46
2022/03/23 02:15:13;;;;;;;80.60;64.77;;;;;;;3.43;97.08;103280.16;5093787;28;20433;-51
2022/03/23 02:17:42;;;;;;;96.27;69.00;;;;;;;3.42;96.97;103281.09;5092971;28;20558;-47
2022/03/23 02:20:12;;;;;;;89.23;65.00;;;;;;;3.40;97.07;103279.47;5093459;28;20524;-50
2022/03/23 02:22:41;;;;;;;74.20;64.40;;;;;;;3.37;96.95;103285.78;5093380;28;20516;-50
2022/03/23 02:25:09;;;;;;;79.93;65.00;;;;;;;3.35;97.03;103280.56;5093256;28;20921;-45
2022/03/23 02:27:40;;;;;;;86.60;65.93;;;;;;;3.33;97.18;103278.97;5092786;28;20871;-45
2022/03/23 02:30:09;;;;;;;74.73;63.53;;;;;;;3.31;97.37;103275.59;5093177;28;20516;-47
2022/03/23 02:32:39;;;;;;;93.00;68.90;;;;;;;3.29;97.21;103275.66;5093184;28;21015;-51
2022/03/23 02:35:11;;;;;;;97.50;73.50;;;;;;;3.29;97.51;103286.19;5093598;28;20429;-49
2022/03/23 02:37:40;;;;;;;92.97;68.93;;;;;;;3.32;97.70;103274.63;5092707;28;20457;-50
2022/03/23 02:40:09;;;;;;;84.43;64.97;;;;;;;3.32;97.64;103277.25;5093063;28;20516;-49
2022/03/23 02:42:37;;;;;;;96.50;73.60;;;;;;;3.33;97.69;103278.97;5092918;28;20437;-46
2022/03/23 02:45:06;;;;;;;84.40;69.83;;;;;;;3.32;97.41;103277.25;5086379;28;20513;-46
2022/03/23 02:47:33;;;;;;;87.00;72.20;;;;;;;3.31;97.83;103280.84;5083919;28;20492;-49
2022/03/23 02:50:01;;;;;;;83.13;66.43;;;;;;;3.29;97.61;103280.94;5092807;28;20460;-48
2022/03/23 02:52:31;;;;;;;82.23;66.50;;;;;;;3.27;97.25;103276.69;5092443;28;20548;-47
2022/03/23 03:03:52;;;;;;;92.73;70.47;;;;;;;3.10;96.87;103275.03;5092630;28;20460;-47
2022/03/23 03:06:20;;;;;;;84.70;65.40;;;;;;;3.06;97.37;103272.63;5091954;28;20449;-50
2022/03/23 03:08:48;;;;;;;85.53;66.63;;;;;;;3.03;97.10;103272.81;5092556;28;20503;-49
2022/03/23 03:11:20;;;;;;;91.10;70.10;;;;;;;2.99;97.22;103269.47;5092313;28;20461;-47
2022/03/23 03:13:49;;;;;;;97.43;71.47;;;;;;;2.96;97.06;103274.94;5092642;28;20585;-47
2022/03/23 03:16:18;;;;;;;85.80;67.33;;;;;;;2.92;97.40;103275.19;5092064;28;20445;-50
2022/03/23 03:18:47;;;;;;;82.03;68.67;;;;;;;2.88;97.15;103273.66;5092257;28;20956;-49
2022/03/23 03:21:16;;;;;;;89.40;69.07;;;;;;;2.79;97.16;103272.38;5092132;28;20801;-50
2022/03/23 03:23:45;;;;;;;80.10;63.20;;;;;;;2.72;96.78;103271.88;5092327;28;20437;-53
2022/03/23 03:26:16;;;;;;;93.40;69.17;;;;;;;2.66;96.94;103271.34;5092080;28;20441;-49
2022/03/23 03:28:46;;;;;;;86.27;67.00;;;;;;;2.61;97.17;103271.59;5092497;28;20448;-44
2022/03/23 03:31:15;;;;;;;93.93;69.20;;;;;;;2.58;96.98;103271.78;5091891;28;20544;-47
2022/03/23 03:33:44;;;;;;;83.97;68.07;;;;;;;2.55;96.85;103279.00;5092089;28;20469;-51
2022/03/23 03:36:12;;;;;;;81.90;62.73;;;;;;;2.49;96.64;103268.78;5091589;28;20860;-50
2022/03/23 03:38:41;;;;;;;83.03;64.57;;;;;;;2.48;96.97;103272.38;5091999;28;21003;-47
2022/03/23 03:41:10;;;;;;;77.50;64.83;;;;;;;2.45;96.86;103275.16;5091804;28;20552;-48
2022/03/23 03:43:37;;;;;;;84.37;68.73;;;;;;;2.45;96.74;103281.25;5092020;28;20433;-48
2022/03/23 03:46:08;;;;;;;89.70;69.97;;;;;;;2.49;97.11;103277.53;5082754;28;20433;-47
2022/03/23 03:48:36;;;;;;;98.07;72.13;;;;;;;2.53;96.96;103279.09;5086108;28;20449;-50
2022/03/23 03:51:03;;;;;;;90.53;69.83;;;;;;;2.57;97.51;103279.78;5092042;28;20452;-51
2022/03/23 03:53:31;;;;;;;102.13;69.90;;;;;;;2.60;97.30;103282.22;5091924;28;20516;-51
2022/03/23 03:56:06;;;;;;;91.00;72.07;;;;;;;2.62;97.82;103278.59;5091331;28;20459;-46
2022/03/23 03:58:34;;;;;;;104.00;74.17;;;;;;;2.61;97.59;103279.50;5091925;28;20491;-49
2022/03/23 04:01:02;;;;;;;96.73;75.03;;;;;;;2.59;97.69;103280.53;5091478;28;20459;-51
2022/03/23 04:03:31;;;;;;;96.67;72.97;;;;;;;2.56;97.76;103281.56;5091911;28;20436;-53
2022/03/23 04:05:59;;;;;;;105.97;74.03;;;;;;;2.53;97.72;103281.72;5091431;28;20491;-51
2022/03/23 04:08:26;;;;;;;96.00;73.17;;;;;;;2.51;98.13;103277.47;5091840;28;20428;-52
2022/03/23 04:10:55;;;;;;;94.53;73.07;;;;;;;2.49;98.16;103277.53;5094406;28;21138;-49
2022/03/23 04:13:22;;;;;;;112.77;77.47;;;;;;;2.50;98.43;103281.03;5095924;28;20523;-48
2022/03/23 04:15:50;;;;;;;99.53;75.90;;;;;;;2.44;98.35;103284.00;5095611;28;20482;-50
2022/03/23 04:18:18;;;;;;;101.03;72.77;;;;;;;2.41;98.33;103285.00;5095917;28;20468;-49
2022/03/23 04:20:47;;;;;;;109.93;75.90;;;;;;;2.37;98.42;103283.47;5095717;28;20811;-46
2022/03/23 04:23:14;;;;;;;100.37;75.70;;;;;;;2.33;97.91;103283.72;5095834;28;20437;-47
2022/03/23 04:25:42;;;;;;;104.33;75.13;;;;;;;2.31;98.73;103285.56;5095755;28;20432;-49
2022/03/23 04:28:10;;;;;;;121.37;78.90;;;;;;;2.29;98.92;103287.44;5094997;28;20560;-47
2022/03/23 04:30:39;;;;;;;118.93;81.47;;;;;;;2.23;98.47;103283.34;5095503;28;20600;-46
2022/03/23 04:33:07;;;;;;;94.60;72.10;;;;;;;2.19;98.56;103285.28;5095492;28;20439;-48
2022/03/23 04:35:34;;;;;;;112.13;78.53;;;;;;;2.22;99.04;103290.41;5095577;28;20475;-53
2022/03/23 04:38:05;;;;;;;115.23;82.17;;;;;;;2.27;99.11;103297.22;5095003;28;20522;-45
2022/03/23 04:40:36;;;;;;;127.03;81.00;;;;;;;2.31;98.85;103290.84;5094929;28;20464;-45
2022/03/23 04:43:03;;;;;;;131.90;86.30;;;;;;;2.36;99.02;103288.81;5095642;28;20502;-47
2022/03/23 04:45:31;;;;;;;125.20;90.50;;;;;;;2.37;98.82;103283.47;5088600;28;20512;-50
2022/03/23 04:47:59;;;;;;;122.00;85.37;;;;;;;2.43;99.02;103284.91;5086329;28;20457;-49
2022/03/23 04:50:27;;;;;;;116.50;81.70;;;;;;;2.45;99.20;103289.16;5095009;28;20434;-46
2022/03/23 04:52:54;;;;;;;120.77;83.80;;;;;;;2.49;98.95;103289.84;5095155;28;20476;-50
2022/03/23 04:55:24;;;;;;;141.13;90.73;;;;;;;2.53;98.99;103300.16;5095065;28;20469;-48
2022/03/23 04:57:52;;;;;;;136.40;92.47;;;;;;;2.59;98.92;103289.28;5094414;28;20494;-46
2022/03/23 05:00:20;;;;;;;130.13;88.47;;;;;;;2.60;99.20;103288.34;5094879;28;20927;-52
2022/03/23 05:02:49;;;;;;;139.73;90.37;;;;;;;2.64;98.86;103295.16;5095018;28;20512;-45
2022/03/23 05:05:17;;;;;;;128.67;86.57;;;;;;;2.65;98.99;103291.59;5094969;28;20422;-51
2022/03/23 05:07:46;;;;;;;125.23;86.47;;;;;;;2.67;99.05;103294.13;5094248;28;20898;-44
2022/03/23 05:10:15;;;;;;;134.07;91.23;;;;;;;2.69;99.17;103286.97;5094715;28;20526;-47
2022/03/23 05:12:46;;;;;;;132.90;89.13;;;;;;;2.68;98.98;103291.44;5095052;28;20831;-44
2022/03/23 05:15:14;;;;;;;143.37;90.50;;;;;;;2.67;99.35;103295.00;5094649;28;20465;-47
2022/03/23 05:17:44;;;;;;;117.70;83.73;;;;;;;2.59;99.28;103288.44;5094099;28;20456;-53
2022/03/23 05:20:14;;;;;;;116.27;81.53;;;;;;;2.54;99.36;103299.22;5094118;28;20928;-48
2022/03/23 05:22:42;;;;;;;112.83;82.83;;;;;;;2.50;99.22;103295.06;5094876;28;20521;-49
2022/03/23 05:25:11;;;;;;;118.53;83.97;;;;;;;2.48;99.51;103298.72;5094788;28;20795;-48
2022/03/23 05:27:41;;;;;;;116.57;86.33;;;;;;;2.44;99.50;103291.91;5093795;28;20457;-49
2022/03/23 05:30:12;;;;;;;120.90;84.23;;;;;;;2.42;99.58;103294.59;5094460;28;20525;-46
2022/03/23 05:32:40;;;;;;;142.43;90.37;;;;;;;2.43;99.20;103298.09;5094374;28;20487;-47
2022/03/23 05:35:10;;;;;;;135.60;89.53;;;;;;;2.47;99.36;103294.38;5094299;28;20522;-48
2022/03/23 05:37:38;;;;;;;155.37;92.70;;;;;;;2.48;99.32;103299.53;5093547;28;20457;-49
2022/03/23 05:40:10;;;;;;;125.03;88.97;;;;;;;2.55;99.40;103300.91;5094354;28;20525;-42
2022/03/23 05:42:38;;;;;;;131.77;88.93;;;;;;;2.62;99.43;103298.81;5094299;28;20465;-44
2022/03/23 05:45:07;;;;;;;135.70;90.70;;;;;;;2.77;99.22;103301.47;5087537;28;20863;-45
2022/03/23 05:47:36;;;;;;;151.10;98.20;;;;;;;2.96;98.83;103300.41;5084926;28;20454;-51
2022/03/23 05:50:05;;;;;;;132.90;92.73;;;;;;;3.12;99.16;103298.66;5094088;28;20524;-46
2022/03/23 05:52:33;;;;;;;132.03;88.57;;;;;;;3.30;98.57;103303.75;5094034;28;20540;-46
2022/03/23 05:55:01;;;;;;;130.70;86.50;;;;;;;3.51;98.56;103304.28;5094140;28;20473;-46
2022/03/23 05:57:29;;;;;;;125.03;86.13;;;;;;;3.70;98.27;103307.53;5093135;28;20955;-47
2022/03/23 05:59:56;;;;;;;134.80;92.60;;;;;;;3.96;98.21;103303.38;5094008;28;20958;-47
2022/03/23 06:02:24;;;;;;;121.20;83.80;;;;;;;4.19;98.47;103307.28;5093791;28;20531;-50
2022/03/23 06:04:53;;;;;;;133.80;89.27;;;;;;;4.46;98.19;103318.81;5093814;28;20430;-47
2022/03/23 06:07:20;;;;;;;119.43;90.80;;;;;;;4.71;98.58;103320.78;5093405;28;20897;-46
2022/03/23 06:09:48;;;;;;;123.00;92.00;;;;;;;4.93;99.17;103310.53;5093958;28;20437;-45
2022/03/23 06:12:16;;;;;;;122.07;90.37;;;;;;;5.29;99.04;103313.47;5093391;28;20463;-52
2022/03/23 06:14:44;;;;;;;108.63;84.03;;;;;;;5.55;99.13;103319.72;5093823;28;20433;-48
2022/03/23 06:17:12;;;;;;;113.20;87.93;;;;;;;5.72;98.85;103316.78;5093174;28;20552;-48
2022/03/23 06:19:39;;;;;;;109.90;87.53;;;;;;;6.06;99.52;103321.50;5093796;28;20433;-50
2022/03/23 06:22:08;;;;;;;102.30;82.37;;;;;;;6.36;98.80;103317.72;5093299;28;20479;-47
2022/03/23 06:24:43;;;;;;;102.00;85.00;;;;;;;6.61;98.01;103323.84;5093368;28;20432;-51
2022/03/23 06:27:11;;;;;;;109.33;84.50;;;;;;;6.81;96.00;103316.28;5093011;28;20457;-47
2022/03/23 06:29:38;;;;;;;99.50;80.87;;;;;;;7.06;95.18;103330.31;5093430;28;20799;-48
2022/03/23 06:32:06;;;;;;;108.33;84.57;;;;;;;7.33;93.38;103323.97;5092689;28;20449;-49
2022/03/23 06:34:34;;;;;;;96.90;80.90;;;;;;;7.61;92.16;103332.44;5093317;28;20507;-46
2022/03/23 06:37:02;;;;;;;90.67;80.30;;;;;;;7.90;90.79;103326.72;5092660;28;20988;-50
2022/03/23 06:39:31;;;;;;;97.67;83.27;;;;;;;8.14;88.33;103325.72;5092906;28;20436;-47
2022/03/23 06:42:00;;;;;;;97.60;78.07;;;;;;;8.34;86.10;103327.69;5092724;28;20814;-49
2022/03/23 06:44:28;;;;;;;89.83;78.93;;;;;;;8.57;83.88;103325.88;5089794;28;20517;-48
2022/03/23 06:46:55;;;;;;;96.53;78.70;;;;;;;8.68;80.40;103327.72;5081042;28;20463;-50
2022/03/23 06:49:23;;;;;;;100.50;80.40;;;;;;;8.92;80.41;103332.91;5092984;28;20520;-50
2022/03/23 06:51:50;;;;;;;86.70;77.60;;;;;;;9.08;80.49;103334.19;5092544;28;20540;-51
2022/03/23 06:54:18;;;;;;;85.50;76.20;;;;;;;9.18;76.71;103342.28;5092978;28;20524;-46
2022/03/23 06:56:51;;;;;;;85.67;75.67;;;;;;;9.39;77.12;103329.88;5092159;28;20472;-47
2022/03/23 06:59:19;;;;;;;89.13;79.83;;;;;;;9.47;74.30;103340.75;5092919;28;20472;-52
2022/03/23 07:01:46;;;;;;;89.33;79.97;;;;;;;9.37;72.90;103335.34;5092381;28;20461;-50
2022/03/23 07:04:14;;;;;;;87.70;78.13;;;;;;;9.55;74.59;103340.13;5092634;28;20936;-49
2022/03/23 07:06:42;;;;;;;87.60;78.30;;;;;;;9.61;74.18;103336.97;5092122;28;20543;-50
2022/03/23 07:11:56;;;;;;;87.93;78.73;;;;;;;9.31;70.46;103343.84;5092361;28;20456;-50
2022/03/23 07:14:24;;;;;;;84.07;75.30;;;;;;;9.12;71.41;103346.28;5092538;28;20528;-45
2022/03/23 07:16:52;;;;;;;84.83;75.97;;;;;;;9.02;73.11;103347.16;5091849;28;20927;-46
2022/03/23 07:19:19;;;;;;;81.17;73.00;;;;;;;9.05;74.24;103342.41;5092646;28;20524;-50
2022/03/23 07:21:47;;;;;;;81.70;73.17;;;;;;;8.86;73.05;103352.88;5092638;28;20536;-49
2022/03/23 07:24:15;;;;;;;84.77;75.90;;;;;;;8.80;74.38;103343.56;5092618;28;20472;-51
2022/03/23 07:26:42;;;;;;;85.77;73.83;;;;;;;8.78;74.61;103349.97;5092103;28;20480;-47
2022/03/23 07:29:31;;;;;;;81.93;73.17;;;;;;;8.71;74.24;103344.28;5092160;28;20444;-49
2022/03/23 07:31:59;;;;;;;76.53;68.70;;;;;;;8.62;73.58;103337.03;5091960;28;20506;-48
2022/03/23 07:34:27;;;;;;;76.53;68.40;;;;;;;8.51;72.54;103341.50;5092494;28;20433;-51
2022/03/23 07:36:55;;;;;;;79.83;71.20;;;;;;;8.50;72.57;103348.63;5091815;28;20818;-45
2022/03/23 07:39:25;;;;;;;83.73;70.10;;;;;;;8.53;73.29;103350.19;5092207;28;20459;-48
2022/03/23 07:41:54;;;;;;;75.17;66.90;;;;;;;8.45;73.31;103345.50;5091710;28;20548;-44
2022/03/23 07:44:22;;;;;;;79.60;71.10;;;;;;;8.42;73.77;103347.53;5089640;28;20487;-46
2022/03/23 07:46:52;;;;;;;76.33;68.03;;;;;;;8.58;74.62;103348.88;5079692;28;20470;-46
2022/03/23 07:49:19;;;;;;;75.40;67.23;;;;;;;8.75;73.86;103353.69;5051873;28;20862;-47
2022/03/23 07:51:47;;;;;;;73.47;65.33;;;;;;;9.01;73.06;103354.31;5051532;28;21036;-50
2022/03/23 07:54:15;;;;;;;71.80;64.20;;;;;;;9.17;70.41;103354.75;5051646;28;20518;-45
2022/03/23 07:56:42;;;;;;;68.73;61.00;;;;;;;9.34;69.50;103351.59;5051014;28;20467;-48
2022/03/23 07:59:10;;;;;;;71.53;62.27;;;;;;;9.36;68.07;103359.44;5051558;28;20427;-48
2022/03/23 08:01:38;;;;;;;68.37;61.17;;;;;;;9.43;67.80;103356.16;5051501;28;20919;-52
2022/03/23 08:04:07;;;;;;;72.17;64.53;;;;;;;9.37;67.08;103361.13;5051808;28;20799;-51
2022/03/23 08:06:35;;;;;;;70.37;62.90;;;;;;;9.37;67.58;103359.31;5051035;28;20550;-50
2022/03/23 08:09:04;;;;;;;70.50;63.00;;;;;;;9.31;67.53;103364.28;5051540;28;21158;-47
2022/03/23 08:11:32;;;;;;;72.67;65.00;;;;;;;9.25;68.42;103368.31;5051383;28;20818;-49
2022/03/23 08:13:59;;;;;;;68.40;61.40;;;;;;;9.21;68.75;103358.88;5051584;28;20524;-49
2022/03/23 08:16:27;;;;;;;69.93;62.60;;;;;;;9.24;68.72;103363.94;5051177;28;20546;-48
2022/03/23 08:18:55;;;;;;;69.10;61.90;;;;;;;9.23;68.56;103367.56;5051448;28;20521;-48
2022/03/23 08:21:26;;;;;;;66.10;58.90;;;;;;;9.10;68.52;103366.03;5051100;28;20455;-51
2022/03/23 08:23:55;;;;;;;69.23;61.97;;;;;;;9.03;69.38;103372.81;5051761;28;20993;-51
2022/03/23 08:26:23;;;;;;;66.43;59.27;;;;;;;8.79;69.42;103371.13;5051257;28;20534;-49
2022/03/23 08:28:51;;;;;;;65.67;56.73;;;;;;;8.80;68.91;103371.97;5051591;28;20522;-52
2022/03/23 08:31:19;;;;;;;66.73;60.00;;;;;;;8.93;69.83;103369.19;5051568;28;20545;-45
2022/03/23 08:33:47;;;;;;;65.30;58.37;;;;;;;9.07;69.45;103367.13;5051275;28;20481;-45
2022/03/23 08:36:15;;;;;;;65.60;58.83;;;;;;;9.09;69.93;103367.00;5050732;28;20853;-43
2022/03/23 08:38:44;;;;;;;62.17;55.63;;;;;;;9.08;69.04;103360.81;5051304;28;20434;-44
2022/03/23 08:41:12;;;;;;;69.83;60.63;;;;;;;9.23;68.73;103364.91;5050630;28;20470;-43
2022/03/23 08:43:41;;;;;;;63.77;57.00;;;;;;;9.36;67.94;103359.44;5051306;28;20486;-42
2022/03/23 08:46:12;;;;;;;63.27;56.30;;;;;;;9.41;67.68;103358.06;5075963;28;20955;-44
2022/03/23 08:48:39;;;;;;;64.00;57.40;;;;;;;9.57;67.80;103364.81;5086104;28;20429;-43
2022/03/23 08:51:08;;;;;;;61.00;55.00;;;;;;;9.74;66.20;103359.78;5090984;28;20453;-45
2022/03/23 08:53:38;;;;;;;58.97;53.03;;;;;;;9.82;65.80;103362.66;5091212;28;20994;-45
2022/03/23 08:56:08;;;;;;;58.53;52.50;;;;;;;9.97;65.21;103364.03;5092169;28;20512;-44
2022/03/23 08:58:36;;;;;;;58.27;52.13;;;;;;;10.25;65.09;103367.06;5095108;28;20932;-44
2022/03/23 09:01:04;;;;;;;62.80;56.30;;;;;;;10.45;64.52;103360.88;5094697;28;20453;-43
2022/03/23 09:03:32;;;;;;;59.47;53.27;;;;;;;10.46;64.11;103362.56;5095117;28;20421;-45
2022/03/23 09:06:01;;;;;;;59.80;53.57;;;;;;;10.35;64.88;103360.81;5094619;28;20523;-44
2022/03/23 09:08:28;;;;;;;58.93;52.60;;;;;;;10.42;64.53;103361.97;5094926;28;20426;-45
2022/03/23 09:10:56;;;;;;;60.27;54.20;;;;;;;10.26;66.11;103366.94;5094412;28;20984;-46
2022/03/23 09:13:26;;;;;;;57.13;51.60;;;;;;;10.48;65.29;103360.63;5094621;28;20800;-45
2022/03/23 09:15:53;;;;;;;55.63;49.90;;;;;;;10.51;63.97;103361.16;5094143;28;21011;-43
2022/03/23 09:18:21;;;;;;;54.63;49.17;;;;;;;10.66;65.96;103359.03;5094734;28;20472;-44
2022/03/23 09:20:49;;;;;;;55.77;49.97;;;;;;;10.96;65.38;103366.16;5094360;28;20449;-44
2022/03/23 09:23:17;;;;;;;55.30;49.63;;;;;;;11.14;65.14;103359.16;5094579;28;20468;-45
2022/03/23 09:25:44;;;;;;;54.60;49.00;;;;;;;11.32;64.26;103360.19;5094618;28;20436;-46
2022/03/23 09:28:12;;;;;;;54.90;48.90;;;;;;;11.42;63.33;103357.53;5094116;28;20859;-44
2022/03/23 09:30:42;;;;;;;51.80;46.40;;;;;;;11.45;61.74;103357.25;5094273;28;20545;-46
2022/03/23 09:33:10;;;;;;;49.43;44.53;;;;;;;11.62;61.54;103360.09;5094537;28;20516;-46
2022/03/23 09:35:37;;;;;;;60.57;39.17;;;;;;;11.77;59.78;103352.53;5094236;28;21051;-46
2022/03/23 09:38:05;;;;;;;44.87;38.67;;;;;;;11.93;58.71;103351.97;5093861;28;20835;-45
2022/03/23 09:40:33;;;;;;;43.17;38.40;;;;;;;11.94;58.73;103361.69;5093729;28;20544;-44
2022/03/23 09:43:03;;;;;;;44.40;39.43;;;;;;;12.11;58.18;103352.94;5094481;28;20447;-43
2022/03/23 09:48:16;;;;;;;40.63;36.20;;;;;;;12.29;56.43;103351.19;5080937;28;20472;-44
2022/03/23 09:50:46;;;;;;;43.90;36.83;;;;;;;12.49;54.79;103346.63;5093884;28;20880;-46
2022/03/23 09:53:15;;;;;;;40.97;36.80;;;;;;;12.37;54.37;103359.34;5093905;28;20456;-47
2022/03/23 09:55:44;;;;;;;41.60;35.90;;;;;;;12.27;52.85;103347.84;5093903;28;20429;-45
2022/03/23 09:58:12;;;;;;;39.67;35.43;;;;;;;12.32;53.19;103350.06;5093347;28;20836;-43
2022/03/23 10:00:42;;;;;;;39.33;33.73;;;;;;;12.40;53.96;103348.34;5093627;28;20537;-44
2022/03/23 10:03:54;;;;;;;42.03;35.80;;;;;;;12.48;51.74;103353.84;5093852;28;20452;-45
2022/03/23 10:06:58;;;;;;;37.73;33.40;;;;;;;12.56;50.75;103345.91;5093561;28;20481;-43
2022/03/23 10:10:11;;;;;;;42.13;35.37;;;;;;;12.60;53.45;103349.16;5093363;28;20429;-44
2022/03/23 10:13:13;;;;;;;41.23;34.80;;;;;;;12.46;50.77;103347.75;5093738;28;20475;-44
2022/03/23 10:16:23;;;;;;;42.93;36.53;;;;;;;12.60;50.95;103347.28;5059995;28;20453;-49
2022/03/23 10:18:54;;;;;;;37.73;33.60;;;;;;;12.52;49.04;103341.84;5093119;28;21017;-46
2022/03/23 10:21:23;;;;;;;36.73;32.60;;;;;;;12.74;49.99;103337.94;5093185;28;20889;-45
2022/03/23 10:24:13;;;;;;;39.70;34.50;;;;;;;12.83;52.97;103342.41;5093291;28;20483;-44
2022/03/23 10:26:42;;;;;;;41.40;33.67;;;;;;;12.83;51.36;103344.25;5092792;28;20556;-44
2022/03/23 10:29:20;;;;;;;37.10;32.43;;;;;;;12.77;50.85;103337.66;5093338;28;20429;-46
2022/03/23 10:31:47;;;;;;;36.93;32.93;;;;;;;12.83;51.15;103339.75;5092983;28;20481;-43
2022/03/23 10:34:15;;;;;;;38.20;34.20;;;;;;;13.07;50.94;103345.38;5093290;28;20457;-46
2022/03/23 10:36:52;;;;;;;39.90;33.03;;;;;;;13.10;50.23;103325.53;5092839;28;20483;-46
2022/03/23 10:39:20;;;;;;;37.43;32.43;;;;;;;13.04;50.47;103328.78;5093399;28;20505;-46
2022/03/23 10:41:58;;;;;;;36.63;32.80;;;;;;;13.30;47.47;103329.75;5092029;28;20540;-45
2022/03/23 10:44:27;;;;;;;37.50;32.30;;;;;;;13.26;49.62;103325.72;5088973;28;20515;-46
2022/03/23 10:46:58;;;;;;;35.10;31.40;;;;;;;13.29;50.43;103320.88;5080187;28;20464;-45
2022/03/23 10:49:35;;;;;;;36.40;32.53;;;;;;;13.53;50.36;103328.31;5092026;28;20430;-46
2022/03/23 10:52:13;;;;;;;36.00;32.10;;;;;;;13.34;49.60;103322.25;5091918;28;20510;-44
2022/03/23 10:54:42;;;;;;;35.47;31.97;;;;;;;13.40;51.46;103321.66;5092137;28;20436;-44
2022/03/23 10:57:13;;;;;;;35.93;32.03;;;;;;;13.52;48.06;103320.44;5091444;28;20497;-45
2022/03/23 10:59:46;;;;;;;35.47;31.67;;;;;;;13.39;48.71;103326.16;5091839;28;20516;-44
2022/03/23 11:02:16;;;;;;;39.87;35.87;;;;;;;13.60;49.68;103315.13;5091878;28;20548;-45
2022/03/23 11:04:47;;;;;;;39.30;35.17;;;;;;;13.81;49.76;103307.59;5091963;28;20431;-46
2022/03/23 11:07:26;;;;;;;35.30;31.30;;;;;;;13.68;48.77;103308.00;5091357;28;20485;-44
2022/03/23 11:18:15;;;;;;;35.03;31.33;;;;;;;14.68;45.51;103297.59;5090962;28;20547;-45
2022/03/23 11:20:44;;;;;;;36.33;32.73;;;;;;;14.92;48.03;103299.53;5091257;28;20449;-46
2022/03/23 11:23:17;;;;;;;38.03;33.53;;;;;;;14.90;43.40;103299.69;5091687;28;20433;-47
2022/03/23 11:25:46;;;;;;;35.57;31.97;;;;;;;14.84;45.19;103291.47;5091775;28;20503;-49
2022/03/23 11:28:15;;;;;;;35.23;31.53;;;;;;;14.67;45.23;103297.75;5091261;28;20539;-46
2022/03/23 11:30:44;;;;;;;39.23;35.07;;;;;;;14.59;46.32;103292.34;5091170;28;20485;-46
2022/03/23 11:33:14;;;;;;;38.70;34.60;;;;;;;14.43;47.05;103297.63;5091311;28;20440;-44
2022/03/23 11:35:47;;;;;;;36.17;32.57;;;;;;;14.52;45.64;103283.25;5091322;28;20472;-47
2022/03/23 11:38:17;;;;;;;39.87;32.13;;;;;;;14.64;43.87;103287.31;5090976;28;20469;-48
2022/03/23 11:40:45;;;;;;;37.13;33.03;;;;;;;14.99;43.83;103281.75;5054496;28;1043737;-46
2022/03/23 11:43:15;;;;;;;35.43;31.83;;;;;;;14.86;43.30;103281.38;5092451;28;20689;-46
2022/03/23 11:46:05;;;;;;;37.73;32.90;;;;;;;15.26;43.60;103278.78;5083152;28;20966;-47
2022/03/23 11:48:55;;;;;;;36.67;32.57;;;;;;;15.46;41.98;103277.47;5086132;28;20432;-48